Weather observations for the past three days for
Jamestown, Jamestown Municipal Airport
Metric (Imperial)
Date Time (cdt) Wind (kph) Vis. (km) Weather Sky Cond. Temperature (ºC) Relative Humidity Wind Chill (°C) Heat Index (°C) Pressure Precipitation (cm)
Air Dwpt 6 hour altimeter (cm) sea level (mb) 1 hr 3 hr 6 hr
Max. Min.
04 00:56 N 43 G 72 16.09 A Few Clouds and Windy FEW025 10.6 3.3 22.8 10.6 61% 74.9 998.5
03 23:56 SW 26 16.09 Mostly Cloudy BKN110 16.7 1.7 37% 74.63 994.7
03 22:56 SW 26 G 43 16.09 Fair CLR 15.6 1.1 38% 74.68 995.6
03 21:56 SW 24 G 33 16.09 Fair CLR 17.2 0.6 33% 74.8 997.0
03 20:56 SW 22 16.09 Fair CLR 18.9 1.1 30% 74.85 998.0
03 19:56 SW 20 16.09 Fair CLR 21.1 0 25% 74.96 999.3
03 18:56 W 24 16.09 Fair CLR 21.7 -1.1 23.3 19.4 22% 75.03 1000.7
03 17:56 W 28 G 44 16.09 Fair CLR 22.8 -1.1 20% 75.11 1001.6
03 16:56 W 35 G 59 16.09 A Few Clouds and Breezy FEW100 22.2 -1.1 21% 75.21 1002.9
03 15:56 W 30 G 46 16.09 Fair CLR 22.2 -1.1 21% 75.34 1004.5
03 14:56 W 28 G 46 16.09 Fair CLR 21.7 -0.6 23% 75.44 1006.0
03 13:56 Calm 16.09 Fair CLR 20 -1.1 24% 75.57 1007.7
03 12:56 W 28 G 44 16.09 Fair CLR 19.4 0 19.4 2.8 27% 75.67 1009.0
03 11:56 W 20 G 39 16.09 Fair CLR 17.2 0 31% 75.77 1010.3
03 10:56 W 20 16.09 Fair CLR 15.6 1.1 38% 75.82 1011.0
03 09:56 NW 17 16.09 Fair CLR 13.3 1.7 46% 75.84 1011.5
03 08:56 W 9 16.09 Fair CLR 10 2.2 59% 9 75.9 1012.2
03 07:56 W 11 16.09 Fair CLR 6.1 1.7 74% 4 75.9 1012.3
03 06:56 NW 6 16.09 Fair CLR 2.8 0.6 5.6 1.7 86% 75.87 1012.0
03 05:56 NW 15 16.09 Fair CLR 2.8 0 82% -1 75.84 1011.6
03 04:56 NW 13 16.09 Fair CLR 3.9 1.1 82% 1 75.84 1011.7
03 03:56 NW 13 16.09 Fair CLR 3.9 1.1 82% 1 75.84 1011.6
03 02:56 NW 7 16.09 Fair CLR 5 1.7 79% 4 75.82 1011.2
03 01:56 NW 11 16.09 Fair CLR 4.4 1.7 83% 2 75.79 1011.0
03 00:56 N 13 16.09 Fair CLR 5.6 1.1 20.6 5 73% 3 75.79 1010.7
02 23:56 N 11 16.09 Fair CLR 8.3 2.2 66% 7 75.77 1010.4
02 22:56 N 17 16.09 Fair CLR 10.6 3.3 61% 75.72 1009.7
02 20:56 N 24 16.09 Fair CLR 15.6 2.8 42% 75.57 1007.4
02 19:56 NW 22 16.09 Fair CLR 18.3 3.3 37% 75.49 1006.4
02 18:56 NW 33 16.09 Fair and Breezy CLR 20.6 1.7 22.8 19.4 29% 75.46 1006.3
02 17:56 NW 33 G 50 16.09 Fair and Breezy CLR 21.7 -0.6 23% 75.46 1006.1
02 16:56 NW 26 16.09 Partly Cloudy SCT095 20.6 1.1 27% 75.49 1006.6
02 15:56 NW 26 G 41 16.09 Mostly Cloudy BKN110 20.6 1.1 27% 75.54 1007.6
02 14:56 W 37 G 52 16.09 Overcast and Breezy OVC110 21.1 0 25% 75.59 1008.2
02 13:56 SW 31 16.09 Overcast OVC100 20 -2.2 22% 75.67 1009.2
02 12:56 SW 33 G 54 16.09 Overcast and Breezy OVC110 20 -2.8 20.6 8.3 21% 75.77 1010.3
02 11:56 SW 30 G 50 16.09 Overcast OVC100 17.2 -1.7 28% 75.82 1011.1
02 10:56 SW 33 G 56 16.09 Mostly Cloudy and Breezy BKN095 15.6 -1.1 32% 75.87 1011.8
02 09:56 W 28 G 52 16.09 A Few Clouds FEW120 15 -1.1 33% 75.95 1012.9
02 08:56 W 35 G 48 16.09 Fair and Breezy CLR 12.8 -1.1 38% 76.02 1014.0
02 07:56 W 30 G 48 16.09 Fair CLR 10 -1.1 46% 7 76.05 1014.3
02 06:56 W 30 G 41 16.09 Fair CLR 8.3 -1.7 8.3 1.7 50% 5 76.07 1014.6
02 05:56 W 22 16.09 Fair CLR 6.7 -0.6 60% 3 76.1 1015.1
02 04:56 W 15 16.09 Fair CLR 5 -1.1 65% 2 76.1 1015.2
02 03:56 S 13 16.09 Fair CLR 2.2 -2.2 73% -1 76.15 1016.2
02 02:56 S 15 16.09 Fair CLR 2.2 -2.2 73% -1 76.2 1016.9
02 01:56 S 13 16.09 Fair CLR 3.3 -2.8 65% 0 76.25 1017.8
02 00:56 S 15 16.09 Fair CLR 5 -2.8 13.9 3.3 57% 2 76.3 1018.2
01 23:56 S 17 16.09 Fair CLR 5.6 -3.3 53% 3 76.33 1018.7
01 22:56 S 13 16.09 Fair CLR 6.1 -3.9 49% 4 76.35 1018.9
01 21:56 S 9 16.09 Fair CLR 7.2 -3.3 48% 6 76.35 1019.0
01 20:56 S 7 16.09 Fair CLR 8.3 -2.8 46% 7 76.33 1018.9
01 19:56 N 6 16.09 Fair CLR 12.2 -2.8 35% 76.35 1019.1
01 18:56 Vrbl 7 16.09 Fair CLR 13.3 -3.9 14.4 10 30% 76.38 1019.5
01 17:56 NW 17 16.09 Fair CLR 13.9 -5 27% 76.38 1019.7
01 16:56 N 7 G 28 16.09 Fair CLR 13.9 -5.6 26% 76.4 1019.8
01 15:56 Vrbl 6 16.09 Fair CLR 12.8 -5 29% 76.43 1020.3
01 14:56 Calm 16.09 Fair CLR 11.7 -4.4 32% 76.48 1020.8
01 13:56 W 7 16.09 Fair CLR 10.6 -4.4 35% 76.48 1021.2
01 12:56 Calm 16.09 Fair CLR 10.6 -3.9 10.6 -5 36% 76.53 1021.6
01 11:56 Vrbl 7 16.09 Fair CLR 8.9 -5 37% 8 76.56 1022.1
01 10:56 Calm 16.09 Fair CLR 7.8 -4.4 42% 76.56 1022.3
01 09:56 Calm 16.09 Fair CLR 5.6 -4.4 49% 76.56 1022.4
01 08:56 Calm 16.09 Fair CLR 2.8 -5 57% 76.58 1022.5
01 07:56 Calm 16.09 Fair CLR -0.6 -2.8 85% 76.58 1022.4
01 06:56 Calm 16.09 Fair CLR -5 -7.2 -1.1 -6.1 85% 76.56 1022.4
01 05:56 Calm 16.09 Fair CLR -4.4 -6.1 88% 76.53 1021.9
01 04:56 W 6 16.09 Fair CLR -3.9 -5.6 88% 76.53 1021.8
01 03:56 Calm 16.09 Fair CLR -3.9 -5.6 88% 76.5 1021.6
01 02:56 Calm 16.09 Fair CLR -3.9 -5.6 88% 76.5 1021.5
01 01:56 Calm 16.09 Fair CLR -2.8 -5.6 81% 76.5 1021.5
Date Time (cdt) Wind (kph) Vis. (km) Weather Sky Cond. Air Dwpt Max. Min. Relative Humidity Wind Chill (°C) Heat Index (°C) altimeter (cm) sea level (mb) 1 hr 3 hr 6 hr
6 hour
Temperature (ºC) Pressure Precipitation (cm)